Date,TemperatureHighF,TemperatureAvgF,TemperatureLowF,DewpointHighF,DewpointAvgF,DewpointLowF,HumidityHigh,HumidityAvg,HumidityLow,PressureMaxIn,PressureMinIn,WindSpeedMaxMPH,WindSpeedAvgMPH,GustSpeedMaxMPH,PrecipitationSumIn
2013-5-1,56,45,32,28,21,17,67,42,25,30.58,30.33,7,1,11,0.00
2013-5-2,67,54,40,31,23,16,58,33,20,30.58,30.20,12,2,13,0.00
2013-5-3,66,58,50,37,32,20,52,37,25,30.20,30.10,8,3,13,0.00
2013-5-4,68,59,50,35,31,25,52,36,24,30.19,30.01,12,5,20,0.00
2013-5-5,73,63,50,35,30,26,43,30,21,30.01,29.78,12,3,15,0.00
2013-5-6,80,68,55,41,32,26,43,27,18,29.81,29.63,7,2,11,0.00
2013-5-7,81,70,56,44,35,27,48,28,21,29.76,29.66,11,2,14,0.00
2013-5-8,83,72,58,47,40,33,42,33,25,29.87,29.76,5,2,15,0.00
2013-5-9,84,72,59,50,41,34,58,34,18,29.95,29.86,6,2,9,0.00
2013-5-10,86,73,59,49,40,34,55,32,20,30.04,29.94,6,2,12,0.00
2013-5-11,83,74,64,48,40,30,49,30,22,29.99,29.87,9,2,17,0.00
2013-5-12,78,71,62,49,44,36,54,39,27,29.88,29.81,17,5,22,0.00
2013-5-13,64,55,46,50,44,35,87,67,48,29.99,29.82,32,9,38,0.67
2013-5-14,60,50,41,36,30,22,66,47,29,30.11,30.00,12,3,19,0.00
2013-5-15,63,53,43,38,32,22,74,44,33,30.04,29.88,7,1,8,0.00
2013-5-16,60,53,46,46,42,35,87,68,49,29.89,29.81,4,1,7,0.02
2013-5-17,67,55,44,47,43,40,85,65,38,29.88,29.78,6,2,10,0.00
2013-5-18,56,51,45,44,40,37,85,68,53,30.08,29.88,17,4,17,0.11
2013-5-19,66,54,46,45,42,37,79,64,45,30.20,30.09,9,2,15,0.00
2013-5-20,71,60,50,48,43,40,75,55,36,30.20,29.80,5,1,7,0.00
2013-5-21,74,57,41,45,39,37,89,56,28,29.80,29.47,22,5,29,0.26
2013-5-22,47,40,35,38,34,31,89,81,66,30.00,29.68,14,4,19,0.05
2013-5-23,58,46,34,39,33,28,89,65,36,30.02,29.92,7,1,9,0.01
2013-5-24,52,45,39,40,36,30,85,71,52,29.99,29.89,12,4,16,0.00
2013-5-25,60,51,42,41,38,34,79,62,39,30.00,29.94,8,2,13,0.00
2013-5-26,68,56,43,44,38,35,77,55,31,29.95,29.82,12,2,18,0.00
2013-5-27,63,54,48,47,42,38,88,66,40,29.88,29.71,12,3,17,0.08
2013-5-28,61,52,47,49,45,38,89,76,54,29.79,29.70,9,3,14,0.05
2013-5-29,60,52,47,47,42,37,83,70,55,29.80,29.62,17,4,24,0.00
2013-5-30,58,50,43,44,38,33,82,65,48,30.07,29.80,18,9,25,0.01
2013-5-31,62,51,43,41,36,32,74,59,46,30.22,30.08,9,3,15,0.00